createdAt,value
2018-10-16T00:00:37.250Z,28.30
2018-10-16T00:01:37.513Z,28.90
2018-10-16T00:02:37.206Z,27.80
2018-10-16T00:03:37.286Z,28.70
2018-10-16T00:04:37.298Z,29.40
2018-10-16T00:05:37.212Z,28.90
2018-10-16T00:06:37.299Z,28.20
2018-10-16T00:07:37.271Z,28.30
2018-10-16T00:08:37.232Z,26.90
2018-10-16T00:09:37.241Z,28.50
2018-10-16T00:10:37.270Z,27.90
2018-10-16T00:11:37.329Z,27.00
2018-10-16T00:12:37.239Z,28.50
2018-10-16T00:13:37.287Z,28.10
2018-10-16T00:14:37.268Z,29.00
2018-10-16T00:15:37.278Z,28.10
2018-10-16T00:16:37.261Z,28.50
2018-10-16T00:17:37.272Z,28.80
2018-10-16T00:18:37.269Z,28.60
2018-10-16T00:19:37.257Z,29.20
2018-10-16T00:20:37.253Z,29.70
2018-10-16T00:21:37.313Z,29.50
2018-10-16T00:22:37.248Z,29.30
2018-10-16T00:23:37.249Z,29.60
2018-10-16T00:24:37.251Z,29.80
2018-10-16T00:25:37.254Z,28.90
2018-10-16T00:26:37.268Z,30.00
2018-10-16T00:27:37.339Z,30.50
2018-10-16T00:28:37.315Z,30.60
2018-10-16T00:29:37.295Z,29.20
2018-10-16T00:30:37.294Z,30.50
2018-10-16T00:31:37.289Z,29.40
2018-10-16T00:32:37.321Z,31.10
2018-10-16T00:33:37.322Z,29.20
2018-10-16T00:34:37.291Z,30.10
2018-10-16T00:35:37.273Z,29.90
2018-10-16T00:36:37.284Z,30.00
2018-10-16T00:37:37.286Z,28.30
2018-10-16T00:38:37.272Z,29.10
2018-10-16T00:39:37.302Z,29.90
2018-10-16T00:40:37.292Z,29.00
2018-10-16T00:41:37.289Z,29.50
2018-10-16T00:42:37.334Z,30.00
2018-10-16T00:43:37.287Z,30.00
2018-10-16T00:44:37.292Z,29.70
2018-10-16T00:45:37.294Z,29.10
2018-10-16T00:46:37.367Z,28.60
2018-10-16T00:47:37.413Z,28.60
2018-10-16T00:48:37.334Z,27.90
2018-10-16T00:49:37.354Z,29.60
2018-10-16T00:50:37.357Z,30.70
2018-10-16T00:51:37.367Z,29.60
2018-10-16T00:52:37.359Z,30.40
2018-10-16T00:53:37.315Z,30.10
2018-10-16T00:54:37.327Z,29.00
2018-10-16T00:55:37.312Z,30.10
2018-10-16T00:56:37.414Z,30.80
2018-10-16T00:57:37.315Z,29.80
2018-10-16T00:58:37.369Z,31.30
2018-10-16T00:59:37.338Z,29.90
2018-10-16T01:00:37.330Z,30.50
2018-10-16T01:01:37.350Z,30.40
2018-10-16T01:02:37.433Z,31.20
2018-10-16T01:03:37.441Z,30.30
2018-10-16T01:04:37.428Z,29.70
2018-10-16T01:05:37.357Z,30.50
2018-10-16T01:06:37.362Z,30.10
2018-10-16T01:07:37.390Z,30.70
2018-10-16T01:08:37.372Z,30.40
2018-10-16T01:09:37.366Z,30.50
2018-10-16T01:10:37.372Z,29.80
2018-10-16T01:11:37.524Z,31.10
2018-10-16T01:12:37.352Z,29.40
2018-10-16T01:13:37.465Z,30.90
2018-10-16T01:14:37.423Z,28.70
2018-10-16T01:15:37.404Z,30.50
2018-10-16T01:16:37.382Z,29.20
2018-10-16T01:17:37.354Z,28.80
2018-10-16T01:18:37.438Z,30.20
2018-10-16T01:19:37.348Z,29.40
2018-10-16T01:20:37.383Z,29.00
2018-10-16T01:21:37.369Z,29.00
2018-10-16T01:22:37.406Z,29.70
2018-10-16T01:23:37.391Z,29.90
2018-10-16T01:24:37.362Z,30.50
2018-10-16T01:25:37.387Z,30.80
2018-10-16T01:26:37.487Z,30.00
2018-10-16T01:27:37.379Z,30.30
2018-10-16T01:28:37.378Z,31.30
2018-10-16T01:29:37.379Z,30.60
2018-10-16T01:30:37.390Z,30.00
2018-10-16T01:31:37.470Z,29.00
2018-10-16T01:32:37.446Z,29.90
2018-10-16T01:33:37.458Z,30.90
2018-10-16T01:34:37.413Z,31.00
2018-10-16T01:35:37.416Z,30.60
2018-10-16T01:36:37.425Z,31.10
2018-10-16T01:37:37.425Z,31.80
2018-10-16T01:38:37.400Z,30.60
2018-10-16T01:39:37.401Z,31.30
2018-10-16T01:40:37.433Z,31.10
2018-10-16T01:41:37.419Z,30.70
2018-10-16T01:42:37.424Z,30.80
2018-10-16T01:43:37.507Z,28.40
2018-10-16T01:44:37.428Z,30.10
2018-10-16T01:45:37.533Z,30.40
2018-10-16T01:46:37.451Z,31.30
2018-10-16T01:47:37.498Z,30.60
2018-10-16T01:48:37.418Z,30.90
2018-10-16T01:49:37.529Z,29.90
2018-10-16T01:50:37.434Z,31.30
2018-10-16T01:51:37.442Z,30.40
2018-10-16T01:52:37.436Z,30.00
2018-10-16T01:53:37.457Z,29.70
2018-10-16T01:54:37.473Z,30.10
2018-10-16T01:55:37.553Z,31.00
2018-10-16T01:56:37.436Z,30.40
2018-10-16T01:57:37.567Z,30.60
2018-10-16T01:58:37.429Z,31.00
2018-10-16T01:59:37.488Z,30.80
2018-10-16T02:00:37.421Z,30.90
2018-10-16T02:01:37.486Z,30.20
2018-10-16T02:02:37.517Z,30.50
2018-10-16T02:03:37.454Z,31.50
2018-10-16T02:04:37.474Z,29.60
2018-10-16T02:05:37.443Z,29.90
2018-10-16T02:06:37.545Z,32.10
2018-10-16T02:07:37.471Z,30.40
2018-10-16T02:08:37.451Z,30.80
2018-10-16T02:09:37.534Z,30.60
2018-10-16T02:10:37.494Z,31.30
2018-10-16T02:11:37.444Z,30.40
2018-10-16T02:12:37.514Z,30.20
2018-10-16T02:13:37.553Z,31.40
2018-10-16T02:14:37.545Z,30.90
2018-10-16T02:15:37.462Z,30.00
2018-10-16T02:16:37.455Z,30.30
2018-10-16T02:17:37.454Z,30.50
2018-10-16T02:18:37.507Z,30.90
2018-10-16T02:19:37.526Z,30.10
2018-10-16T02:20:37.481Z,29.90
2018-10-16T02:21:37.469Z,31.20
2018-10-16T02:22:37.484Z,30.50
2018-10-16T02:23:37.472Z,30.60
2018-10-16T02:24:37.493Z,31.30
2018-10-16T02:25:37.482Z,30.50
2018-10-16T02:26:37.483Z,30.20
2018-10-16T02:27:37.482Z,30.60
2018-10-16T02:28:37.490Z,29.90
2018-10-16T02:29:37.500Z,31.00
2018-10-16T02:30:37.514Z,30.80
2018-10-16T02:31:37.490Z,31.30
2018-10-16T02:32:37.498Z,30.70
2018-10-16T02:33:37.486Z,28.80
2018-10-16T02:34:37.493Z,31.30
2018-10-16T02:35:37.505Z,29.80
2018-10-16T02:36:37.520Z,31.10
2018-10-16T02:37:37.497Z,30.90
2018-10-16T02:38:37.608Z,30.90
2018-10-16T02:39:37.500Z,29.80
2018-10-16T02:40:37.507Z,30.90
2018-10-16T02:41:37.501Z,30.60
2018-10-16T02:42:37.519Z,29.10
2018-10-16T02:43:37.509Z,30.90
2018-10-16T02:44:37.516Z,31.10
2018-10-16T02:45:37.538Z,31.10
2018-10-16T02:46:37.528Z,31.30
2018-10-16T02:47:37.525Z,30.70
2018-10-16T02:48:37.525Z,31.10
2018-10-16T02:49:37.530Z,32.20
2018-10-16T02:50:37.542Z,36.30
2018-10-16T02:51:37.526Z,40.70
2018-10-16T02:52:37.591Z,66.10
2018-10-16T02:53:37.533Z,68.60
2018-10-16T02:54:37.526Z,69.30
2018-10-16T02:55:37.535Z,57.60
2018-10-16T02:56:37.566Z,49.00
2018-10-16T02:57:37.536Z,46.30
2018-10-16T02:58:37.539Z,33.40
2018-10-16T02:59:37.548Z,33.20
2018-10-16T03:00:37.552Z,33.50
2018-10-16T03:01:37.561Z,38.80
2018-10-16T03:02:37.548Z,34.10
2018-10-16T03:03:37.546Z,32.00
2018-10-16T03:04:37.540Z,38.30
2018-10-16T03:05:37.550Z,31.70
2018-10-16T03:06:37.578Z,32.00
2018-10-16T03:07:37.559Z,34.60
2018-10-16T03:08:37.568Z,50.20
2018-10-16T03:09:37.560Z,55.40
2018-10-16T03:10:37.549Z,100.60
2018-10-16T03:11:37.549Z,115.20
2018-10-16T03:12:37.598Z,165.70
2018-10-16T03:13:37.562Z,128.30
2018-10-16T03:14:37.570Z,109.00
2018-10-16T03:15:37.573Z,87.50
2018-10-16T03:16:37.573Z,78.10
2018-10-16T03:17:37.565Z,65.30
2018-10-16T03:18:37.585Z,49.30
2018-10-16T03:19:37.575Z,38.60
2018-10-16T03:20:37.615Z,35.50
2018-10-16T03:21:37.612Z,30.90
2018-10-16T03:22:37.565Z,30.90
2018-10-16T03:23:37.585Z,31.60
2018-10-16T03:24:37.581Z,31.10
2018-10-16T03:25:37.573Z,30.70
2018-10-16T03:26:37.579Z,31.10
2018-10-16T03:27:37.589Z,31.20
2018-10-16T03:28:37.590Z,30.10
2018-10-16T03:29:37.595Z,31.00
2018-10-16T03:30:37.592Z,31.80
2018-10-16T03:31:37.630Z,32.80
2018-10-16T03:32:37.612Z,32.40
2018-10-16T03:33:37.602Z,32.40
2018-10-16T03:34:37.597Z,33.40
2018-10-16T03:35:37.629Z,34.30
2018-10-16T03:36:37.601Z,33.10
2018-10-16T03:37:37.614Z,32.60
2018-10-16T03:38:37.615Z,32.70
2018-10-16T03:39:37.604Z,32.70
2018-10-16T03:40:37.642Z,32.90
2018-10-16T03:41:37.631Z,32.60
2018-10-16T03:42:37.653Z,31.60
2018-10-16T03:43:37.626Z,32.30
2018-10-16T03:44:37.639Z,31.30
2018-10-16T03:45:37.629Z,31.00
2018-10-16T03:46:37.647Z,31.80
2018-10-16T03:47:37.691Z,33.30
2018-10-16T03:48:37.655Z,32.90
2018-10-16T03:49:37.657Z,32.50
2018-10-16T03:50:37.633Z,31.90
2018-10-16T03:51:37.635Z,33.20
2018-10-16T03:52:37.644Z,32.40
2018-10-16T03:53:37.628Z,32.00
2018-10-16T03:54:37.646Z,31.50
2018-10-16T03:55:37.657Z,31.50
2018-10-16T03:56:37.658Z,31.40
2018-10-16T03:57:37.630Z,31.10
2018-10-16T03:58:37.642Z,31.50
2018-10-16T03:59:37.676Z,30.90
2018-10-16T04:00:37.660Z,31.10
2018-10-16T04:01:37.674Z,31.60
2018-10-16T04:02:37.655Z,31.10
2018-10-16T04:03:37.665Z,31.10
2018-10-16T04:04:37.668Z,30.70
2018-10-16T04:05:37.665Z,31.70
2018-10-16T04:06:37.734Z,31.30
2018-10-16T04:07:37.667Z,29.50
2018-10-16T04:08:37.658Z,30.00
2018-10-16T04:09:37.669Z,31.30
2018-10-16T04:10:37.664Z,30.40
2018-10-16T04:11:37.669Z,30.20
2018-10-16T04:12:37.671Z,30.50
2018-10-16T04:13:37.671Z,29.70
2018-10-16T04:14:37.667Z,30.80
2018-10-16T04:15:37.662Z,30.00
2018-10-16T04:16:37.679Z,30.90
2018-10-16T04:17:37.708Z,29.90
2018-10-16T04:18:37.681Z,30.40
2018-10-16T04:19:37.681Z,31.20
2018-10-16T04:20:37.682Z,31.30
2018-10-16T04:21:37.704Z,30.20
2018-10-16T04:22:37.677Z,28.50
2018-10-16T04:23:37.678Z,30.20
2018-10-16T04:24:37.700Z,29.80
2018-10-16T04:25:37.703Z,29.00
2018-10-16T04:26:37.717Z,29.90
2018-10-16T04:27:37.692Z,29.40
2018-10-16T04:28:37.690Z,29.40
2018-10-16T04:29:37.700Z,29.60
2018-10-16T04:30:37.712Z,29.80
2018-10-16T04:31:37.697Z,29.70
2018-10-16T04:32:37.710Z,29.40
2018-10-16T04:33:37.697Z,28.40
2018-10-16T04:34:37.704Z,28.80
2018-10-16T04:35:37.719Z,28.80
2018-10-16T04:36:37.720Z,29.40
2018-10-16T04:37:37.745Z,29.70
2018-10-16T04:38:37.708Z,29.00
2018-10-16T04:39:37.729Z,29.40
2018-10-16T04:40:37.716Z,29.60
2018-10-16T04:41:37.799Z,28.80
2018-10-16T04:42:37.764Z,29.70
2018-10-16T04:43:37.775Z,27.60
2018-10-16T04:44:37.729Z,29.60
2018-10-16T04:45:37.733Z,28.70
2018-10-16T04:46:37.743Z,28.50
2018-10-16T04:47:37.726Z,29.00
2018-10-16T04:48:37.728Z,28.10
2018-10-16T04:49:37.758Z,29.50
2018-10-16T04:50:37.736Z,28.70
2018-10-16T04:51:37.792Z,29.50
2018-10-16T04:52:37.748Z,29.70
2018-10-16T04:53:37.748Z,28.60
2018-10-16T04:54:37.752Z,29.70
2018-10-16T04:55:37.747Z,28.40
2018-10-16T04:56:37.761Z,29.30
2018-10-16T04:57:37.759Z,29.40
2018-10-16T04:58:37.754Z,29.30
2018-10-16T04:59:37.764Z,29.60
2018-10-16T05:00:37.753Z,29.70
2018-10-16T05:01:37.763Z,29.80
2018-10-16T05:02:37.797Z,29.90
2018-10-16T05:03:37.762Z,30.10
2018-10-16T05:04:37.791Z,29.90
2018-10-16T05:05:37.752Z,30.30
2018-10-16T05:06:37.776Z,31.50
2018-10-16T05:07:37.763Z,32.70
2018-10-16T05:08:37.765Z,31.30
2018-10-16T05:09:37.769Z,30.90
2018-10-16T05:10:37.775Z,32.80
2018-10-16T05:11:37.761Z,31.90
2018-10-16T05:12:37.771Z,32.50
2018-10-16T05:13:37.793Z,30.80
2018-10-16T05:14:37.781Z,31.30
2018-10-16T05:15:37.803Z,31.90
2018-10-16T05:16:37.794Z,31.20
2018-10-16T05:17:37.810Z,31.80
2018-10-16T05:18:37.782Z,32.10
2018-10-16T05:19:37.801Z,31.10
2018-10-16T05:20:37.901Z,31.80
2018-10-16T05:21:37.808Z,31.90
2018-10-16T05:22:37.834Z,32.70
2018-10-16T05:23:37.827Z,32.80
2018-10-16T05:24:37.783Z,31.40
2018-10-16T05:25:37.794Z,32.90
2018-10-16T05:26:37.808Z,32.70
2018-10-16T05:27:37.803Z,32.20
2018-10-16T05:28:37.813Z,32.30
2018-10-16T05:29:37.798Z,31.90
2018-10-16T05:30:37.815Z,30.40
2018-10-16T05:31:37.942Z,31.90
2018-10-16T05:32:37.828Z,31.50
2018-10-16T05:33:37.829Z,32.60
2018-10-16T05:34:37.846Z,31.90
2018-10-16T05:35:37.842Z,32.30
2018-10-16T05:36:37.832Z,31.50
2018-10-16T05:37:37.830Z,33.00
2018-10-16T05:38:37.837Z,31.40
2018-10-16T05:39:37.838Z,31.70
2018-10-16T05:40:37.841Z,32.50
2018-10-16T05:41:37.853Z,33.20
2018-10-16T05:42:37.859Z,31.00
2018-10-16T05:43:37.837Z,33.20
2018-10-16T05:44:37.870Z,31.60
2018-10-16T05:45:37.840Z,32.50
2018-10-16T05:46:37.827Z,32.30
2018-10-16T05:47:37.860Z,32.00
2018-10-16T05:48:37.844Z,32.40
2018-10-16T05:49:37.844Z,32.70
2018-10-16T05:50:37.834Z,32.00
2018-10-16T05:51:37.851Z,32.80
2018-10-16T05:52:37.874Z,31.80
2018-10-16T05:53:37.853Z,32.00
2018-10-16T05:54:37.864Z,31.70
2018-10-16T05:55:37.852Z,32.60
2018-10-16T05:56:37.866Z,32.70
2018-10-16T05:57:37.860Z,31.40
2018-10-16T05:58:38.305Z,32.90
2018-10-16T05:59:41.112Z,33.10
2018-10-16T06:00:37.874Z,31.60
2018-10-16T06:01:37.903Z,33.10
2018-10-16T06:02:38.015Z,32.80
2018-10-16T06:03:37.860Z,32.70
2018-10-16T06:04:37.872Z,32.50
2018-10-16T06:05:38.334Z,33.30
2018-10-16T06:06:37.972Z,32.20
2018-10-16T06:07:37.934Z,31.40
2018-10-16T06:08:37.917Z,33.50
2018-10-16T06:09:37.950Z,33.30
2018-10-16T06:10:37.953Z,32.90
2018-10-16T06:11:37.890Z,33.10
2018-10-16T06:12:37.940Z,32.00
2018-10-16T06:13:37.888Z,32.90
2018-10-16T06:14:37.923Z,32.60
2018-10-16T06:15:37.905Z,31.80
2018-10-16T06:16:37.902Z,32.40
2018-10-16T06:17:38.117Z,33.50
2018-10-16T06:18:37.889Z,32.60
2018-10-16T06:19:37.954Z,32.50
2018-10-16T06:20:37.902Z,32.40
2018-10-16T06:21:37.899Z,33.60
2018-10-16T06:22:37.889Z,33.50
2018-10-16T06:23:37.901Z,33.20
2018-10-16T06:24:37.953Z,33.30
2018-10-16T06:25:37.902Z,33.50
2018-10-16T06:26:37.974Z,34.10
2018-10-16T06:27:37.966Z,33.90
2018-10-16T06:28:37.965Z,33.80
2018-10-16T06:29:37.935Z,34.60
2018-10-16T06:30:39.506Z,34.10
2018-10-16T06:31:37.943Z,35.20
2018-10-16T06:32:37.931Z,33.10
2018-10-16T06:33:37.944Z,34.80
2018-10-16T06:34:37.930Z,34.40
2018-10-16T06:35:37.932Z,33.80
2018-10-16T06:36:37.937Z,33.40
2018-10-16T06:37:37.929Z,34.40
2018-10-16T06:38:37.924Z,32.40
2018-10-16T06:39:37.925Z,34.50
2018-10-16T06:40:38.056Z,33.70
2018-10-16T06:41:37.967Z,33.50
2018-10-16T06:42:37.947Z,34.60
2018-10-16T06:43:37.959Z,34.10
2018-10-16T06:44:37.941Z,34.50
2018-10-16T06:45:37.942Z,35.40
2018-10-16T06:46:38.044Z,35.30
2018-10-16T06:47:38.066Z,36.30
2018-10-16T06:48:38.220Z,36.30
2018-10-16T06:49:37.957Z,35.10
2018-10-16T06:50:37.947Z,35.00
2018-10-16T06:51:37.964Z,35.30
2018-10-16T06:52:37.962Z,36.40
2018-10-16T06:53:37.984Z,36.50
2018-10-16T06:54:38.012Z,36.40
2018-10-16T06:55:37.965Z,36.10
2018-10-16T06:56:37.982Z,36.70
2018-10-16T06:57:37.961Z,35.60
2018-10-16T06:58:38.070Z,36.40
2018-10-16T06:59:37.994Z,36.50
2018-10-16T07:00:37.956Z,37.00
2018-10-16T07:01:37.974Z,38.30
2018-10-16T07:02:37.976Z,38.30
2018-10-16T07:03:37.968Z,37.90
2018-10-16T07:04:37.995Z,38.20
2018-10-16T07:05:37.998Z,37.90
2018-10-16T07:06:37.985Z,37.30
2018-10-16T07:07:37.986Z,38.30
2018-10-16T07:08:37.992Z,38.10
2018-10-16T07:09:37.984Z,38.50
2018-10-16T07:10:37.982Z,38.50
2018-10-16T07:11:38.017Z,37.20
2018-10-16T07:12:37.998Z,35.70
2018-10-16T07:13:38.026Z,39.20
2018-10-16T07:14:38.013Z,37.10
2018-10-16T07:15:37.987Z,37.80
2018-10-16T07:16:37.998Z,37.70
2018-10-16T07:17:38.001Z,38.00
2018-10-16T07:18:38.013Z,37.20
2018-10-16T07:19:38.041Z,37.70
2018-10-16T07:20:38.100Z,37.20
2018-10-16T07:21:38.018Z,39.10
2018-10-16T07:22:38.020Z,38.80
2018-10-16T07:23:38.191Z,38.90
2018-10-16T07:24:38.021Z,37.00
2018-10-16T07:25:40.296Z,39.90
2018-10-16T07:26:38.037Z,37.50
2018-10-16T07:27:38.010Z,36.90
2018-10-16T07:28:38.064Z,36.50
2018-10-16T07:29:38.049Z,36.00
2018-10-16T07:30:38.115Z,36.80
2018-10-16T07:31:38.069Z,37.40
2018-10-16T07:32:38.143Z,37.40
2018-10-16T07:33:38.050Z,35.80
2018-10-16T07:34:38.085Z,36.30
2018-10-16T07:35:38.059Z,36.40
2018-10-16T07:36:38.040Z,35.80
2018-10-16T07:37:38.036Z,38.10
2018-10-16T07:38:38.096Z,39.90
2018-10-16T07:39:38.108Z,37.90
2018-10-16T07:40:38.118Z,37.70
2018-10-16T07:41:38.238Z,37.00
2018-10-16T07:42:38.066Z,36.60
2018-10-16T07:43:38.049Z,37.40
2018-10-16T07:44:38.051Z,38.70
2018-10-16T07:45:38.037Z,38.10
2018-10-16T07:46:38.083Z,37.80
2018-10-16T07:47:38.124Z,38.40
2018-10-16T07:48:40.278Z,37.40
2018-10-16T07:49:39.039Z,37.00
2018-10-16T07:50:38.091Z,35.50
2018-10-16T07:51:38.097Z,35.80
2018-10-16T07:52:38.727Z,34.20
2018-10-16T07:53:38.833Z,34.20
2018-10-16T07:54:38.480Z,32.60
2018-10-16T07:55:38.222Z,34.30
2018-10-16T07:56:38.150Z,32.80
2018-10-16T07:57:38.604Z,31.80
2018-10-16T07:58:38.070Z,32.10
2018-10-16T07:59:38.128Z,31.00
2018-10-16T08:00:38.083Z,32.80
2018-10-16T08:01:38.105Z,31.30
2018-10-16T08:02:38.144Z,31.10
2018-10-16T08:03:38.085Z,32.00
2018-10-16T08:04:38.131Z,31.20
2018-10-16T08:05:38.127Z,31.40
2018-10-16T08:06:38.120Z,30.00
2018-10-16T08:07:38.113Z,31.20
2018-10-16T08:08:40.066Z,29.00
2018-10-16T08:09:38.210Z,26.30
2018-10-16T08:10:38.254Z,26.40
2018-10-16T08:11:38.162Z,27.20
2018-10-16T08:12:38.114Z,27.80
2018-10-16T08:13:39.166Z,26.90
2018-10-16T08:14:38.164Z,26.10
2018-10-16T08:15:38.198Z,26.20
2018-10-16T08:16:38.164Z,26.60
2018-10-16T08:17:38.155Z,27.40
2018-10-16T08:18:38.191Z,26.90
2018-10-16T08:19:38.164Z,27.00
2018-10-16T08:20:39.088Z,26.80
2018-10-16T08:21:38.576Z,26.90
2018-10-16T08:22:38.196Z,27.20
2018-10-16T08:23:38.156Z,26.80
2018-10-16T08:24:38.223Z,27.50
2018-10-16T08:25:38.235Z,26.60
2018-10-16T08:26:38.192Z,28.20
2018-10-16T08:27:38.232Z,27.10
2018-10-16T08:28:38.190Z,27.80
2018-10-16T08:29:38.407Z,26.20
2018-10-16T08:30:38.249Z,26.30
2018-10-16T08:31:38.203Z,26.60
2018-10-16T08:32:38.259Z,27.40
2018-10-16T08:33:38.289Z,28.10
2018-10-16T08:34:38.306Z,26.10
2018-10-16T08:35:38.316Z,26.40
2018-10-16T08:36:38.490Z,26.40
2018-10-16T08:37:38.549Z,26.90
2018-10-16T08:38:38.331Z,26.70
2018-10-16T08:39:38.310Z,26.60
2018-10-16T08:40:38.310Z,26.50
2018-10-16T08:41:38.384Z,26.10
2018-10-16T08:42:39.896Z,25.70
2018-10-16T08:43:39.134Z,26.50
2018-10-16T08:44:38.368Z,26.60
2018-10-16T08:45:38.356Z,26.40
2018-10-16T08:46:38.413Z,25.30
2018-10-16T08:47:38.470Z,26.50
2018-10-16T08:48:38.342Z,26.60
2018-10-16T08:49:38.379Z,25.80
2018-10-16T08:50:38.384Z,26.30
2018-10-16T08:51:38.353Z,25.70
2018-10-16T08:52:38.385Z,25.90
2018-10-16T08:53:38.383Z,26.00
2018-10-16T08:54:38.695Z,27.10
2018-10-16T08:55:40.008Z,26.00
2018-10-16T08:56:39.766Z,26.00
2018-10-16T08:57:45.233Z,25.60
2018-10-16T08:58:38.614Z,25.40
2018-10-16T08:59:38.450Z,25.50
2018-10-16T09:00:39.215Z,26.50
2018-10-16T09:01:38.443Z,24.80
2018-10-16T09:02:38.489Z,26.60
2018-10-16T09:03:38.507Z,25.80
2018-10-16T09:04:38.638Z,25.10
2018-10-16T09:05:38.468Z,25.70
2018-10-16T09:06:38.543Z,25.70
2018-10-16T09:07:38.562Z,25.80
2018-10-16T09:08:38.544Z,24.50
2018-10-16T09:09:38.553Z,25.10
2018-10-16T09:10:38.551Z,24.60
2018-10-16T09:11:38.556Z,24.20
2018-10-16T09:12:39.161Z,24.50
2018-10-16T09:13:38.610Z,24.40
2018-10-16T09:14:38.559Z,24.00
2018-10-16T09:15:38.620Z,24.10
2018-10-16T09:16:38.646Z,24.20
2018-10-16T09:17:38.655Z,25.40
2018-10-16T09:18:38.647Z,26.70
2018-10-16T09:19:38.638Z,27.30
2018-10-16T09:20:38.626Z,28.60
2018-10-16T09:21:38.632Z,26.20
2018-10-16T09:22:38.729Z,24.00
2018-10-16T09:23:38.780Z,24.40
2018-10-16T09:24:38.711Z,23.60
2018-10-16T09:25:38.749Z,23.20
2018-10-16T09:26:38.833Z,24.20
2018-10-16T09:27:38.732Z,25.00
2018-10-16T09:28:38.738Z,22.40
2018-10-16T09:29:38.845Z,22.20
2018-10-16T09:30:38.796Z,23.10
2018-10-16T09:31:38.721Z,23.90
2018-10-16T09:32:38.729Z,24.00
2018-10-16T09:33:38.774Z,22.20
2018-10-16T09:34:38.757Z,23.50
2018-10-16T09:35:38.767Z,23.30
2018-10-16T09:36:38.863Z,22.20
2018-10-16T09:37:38.874Z,21.80
2018-10-16T09:38:38.814Z,21.10
2018-10-16T09:39:39.182Z,22.60
2018-10-16T09:40:38.810Z,22.40
2018-10-16T09:42:38.921Z,22.00
2018-10-16T09:43:39.358Z,21.70
2018-10-16T09:44:54.315Z,21.40
2018-10-16T09:45:39.484Z,19.90
2018-10-16T09:46:38.891Z,20.50
2018-10-16T09:47:38.932Z,21.10
2018-10-16T09:48:38.896Z,20.70
2018-10-16T09:49:39.114Z,20.70
2018-10-16T09:50:38.904Z,20.80
2018-10-16T09:51:39.037Z,20.40
2018-10-16T09:52:39.009Z,20.50
2018-10-16T09:53:39.001Z,22.00
2018-10-16T09:54:38.999Z,22.00
2018-10-16T09:55:39.049Z,21.10
2018-10-16T09:56:39.067Z,20.90
2018-10-16T09:57:39.115Z,21.20
2018-10-16T09:58:39.105Z,20.50
2018-10-16T09:59:39.068Z,20.20
2018-10-16T10:00:39.212Z,19.20
2018-10-16T10:01:39.066Z,20.30
2018-10-16T10:02:39.097Z,19.10
2018-10-16T10:03:39.465Z,19.80
2018-10-16T10:04:39.292Z,20.00
2018-10-16T10:05:40.067Z,20.80
2018-10-16T10:06:39.114Z,20.70
2018-10-16T10:07:39.206Z,19.90
2018-10-16T10:08:39.135Z,19.20
2018-10-16T10:09:39.236Z,19.20
2018-10-16T10:10:39.478Z,19.60
2018-10-16T10:11:40.070Z,18.70
2018-10-16T10:12:39.307Z,18.50
2018-10-16T10:13:39.262Z,18.60
2018-10-16T10:14:39.324Z,19.30
2018-10-16T10:15:39.276Z,19.00
2018-10-16T10:16:40.387Z,19.80
2018-10-16T10:17:39.275Z,18.20
2018-10-16T10:18:39.327Z,19.40
2018-10-16T10:19:39.702Z,19.20
2018-10-16T10:20:39.911Z,19.40
2018-10-16T10:21:39.536Z,19.90
2018-10-16T10:22:39.369Z,20.30
2018-10-16T10:23:39.347Z,20.20
2018-10-16T10:24:39.417Z,20.00
2018-10-16T10:25:39.420Z,19.20
2018-10-16T10:26:39.627Z,18.70
2018-10-16T10:27:39.382Z,19.00
2018-10-16T10:28:39.388Z,19.30
2018-10-16T10:29:39.512Z,19.50
2018-10-16T10:30:39.444Z,19.10
2018-10-16T10:31:39.497Z,19.40
2018-10-16T10:32:39.506Z,18.80
2018-10-16T10:33:39.685Z,20.20
2018-10-16T10:34:39.550Z,19.00
2018-10-16T10:35:39.609Z,19.90
2018-10-16T10:36:39.649Z,20.50
2018-10-16T10:37:39.625Z,19.60
2018-10-16T10:38:39.553Z,20.10
2018-10-16T10:39:39.591Z,20.00
2018-10-16T10:40:39.555Z,20.20
2018-10-16T10:41:39.584Z,20.90
2018-10-16T10:42:39.579Z,21.60
2018-10-16T10:43:39.819Z,20.50
2018-10-16T10:44:39.668Z,20.50
2018-10-16T10:45:39.639Z,21.30
2018-10-16T10:46:39.756Z,20.50
2018-10-16T10:47:40.592Z,24.20
2018-10-16T10:48:39.857Z,25.60
2018-10-16T10:49:39.734Z,25.90
2018-10-16T10:50:40.137Z,24.20
2018-10-16T10:51:40.074Z,23.20
2018-10-16T10:52:39.723Z,23.80
2018-10-16T10:53:41.070Z,24.40
2018-10-16T10:56:12.911Z,21.70
2018-10-16T10:57:12.936Z,21.60
2018-10-16T10:58:12.913Z,22.90
2018-10-16T10:59:13.090Z,22.60
2018-10-16T11:00:12.953Z,23.50
2018-10-16T11:01:12.934Z,21.90
2018-10-16T11:02:13.003Z,20.50
2018-10-16T11:03:13.132Z,21.10
2018-10-16T11:04:13.007Z,20.20
2018-10-16T11:05:12.999Z,21.00
2018-10-16T11:06:13.229Z,20.10
2018-10-16T11:07:13.414Z,21.20
2018-10-16T11:08:13.094Z,20.40
2018-10-16T11:09:13.083Z,19.40
2018-10-16T11:10:13.101Z,19.50
2018-10-16T11:11:13.115Z,19.10
2018-10-16T11:12:13.132Z,20.00
2018-10-16T11:13:13.096Z,18.40
2018-10-16T11:14:13.154Z,18.90
2018-10-16T11:15:13.205Z,18.00
2018-10-16T11:16:13.142Z,18.10
2018-10-16T11:17:13.175Z,17.60
2018-10-16T11:18:13.166Z,18.20
2018-10-16T11:19:13.205Z,18.10
2018-10-16T11:20:13.226Z,18.60
2018-10-16T11:21:13.242Z,18.90
2018-10-16T11:22:13.280Z,18.80
2018-10-16T11:23:13.271Z,17.80
2018-10-16T11:24:13.263Z,17.30
2018-10-16T11:25:13.317Z,16.30
2018-10-16T11:26:13.320Z,16.90
2018-10-16T11:27:13.367Z,16.40
2018-10-16T11:28:13.306Z,17.10
2018-10-16T11:29:13.335Z,17.70
2018-10-16T11:30:13.444Z,16.60
2018-10-16T11:31:13.371Z,18.00
2018-10-16T11:32:13.376Z,18.50
2018-10-16T11:33:13.461Z,17.20
2018-10-16T11:34:13.398Z,18.20
2018-10-16T11:35:13.400Z,18.10
2018-10-16T11:36:13.462Z,17.90
2018-10-16T11:37:13.425Z,17.60
2018-10-16T11:38:13.676Z,17.10
2018-10-16T11:39:13.554Z,17.00
2018-10-16T11:40:13.512Z,17.30
2018-10-16T11:41:16.460Z,17.10
2018-10-16T11:42:13.473Z,17.40
2018-10-16T11:43:13.529Z,19.50
2018-10-16T11:44:13.516Z,19.30
2018-10-16T11:45:13.631Z,19.00
2018-10-16T11:46:13.539Z,18.90
2018-10-16T11:47:13.565Z,18.70
2018-10-16T11:48:13.596Z,20.10
2018-10-16T11:49:13.578Z,18.60
2018-10-16T11:50:13.684Z,17.90
2018-10-16T11:51:13.605Z,18.50
2018-10-16T11:52:13.632Z,17.80
2018-10-16T11:53:13.588Z,19.30
2018-10-16T11:54:13.612Z,18.20
2018-10-16T11:55:13.608Z,17.90
2018-10-16T11:56:13.635Z,16.00
2018-10-16T11:57:13.634Z,17.30
2018-10-16T11:58:13.685Z,16.50
2018-10-16T11:59:13.719Z,16.50
2018-10-16T12:00:13.638Z,16.60
2018-10-16T12:01:14.123Z,16.80
2018-10-16T12:02:14.527Z,16.20
2018-10-16T12:03:13.702Z,17.80
2018-10-16T12:04:14.381Z,18.40
2018-10-16T12:05:13.702Z,17.10
2018-10-16T12:06:13.788Z,18.20
2018-10-16T12:07:13.769Z,17.70
2018-10-16T12:08:13.760Z,17.00
2018-10-16T12:09:13.736Z,16.60
2018-10-16T12:10:13.787Z,17.30
2018-10-16T12:11:13.764Z,17.10
2018-10-16T12:12:13.727Z,15.90
2018-10-16T12:13:13.833Z,15.40
2018-10-16T12:14:13.838Z,16.80
2018-10-16T12:15:13.793Z,17.80
2018-10-16T12:16:13.785Z,17.40
2018-10-16T12:17:13.759Z,17.60
2018-10-16T12:18:13.758Z,15.40
2018-10-16T12:19:13.816Z,16.60
2018-10-16T12:20:13.818Z,17.60
2018-10-16T12:21:13.823Z,18.00
2018-10-16T12:22:13.790Z,17.40
2018-10-16T12:23:13.858Z,18.20
2018-10-16T12:24:13.920Z,17.00
2018-10-16T12:25:13.851Z,17.70
2018-10-16T12:26:13.888Z,16.30
2018-10-16T12:27:13.853Z,16.20
2018-10-16T12:28:13.832Z,17.10
2018-10-16T12:29:13.860Z,15.70
2018-10-16T12:30:13.851Z,16.60
2018-10-16T12:31:14.032Z,16.90
2018-10-16T12:32:14.018Z,16.30
2018-10-16T12:33:13.948Z,16.10
2018-10-16T12:34:13.921Z,16.50
2018-10-16T12:35:13.879Z,17.70
2018-10-16T12:36:13.873Z,15.40
2018-10-16T12:37:13.978Z,16.10
2018-10-16T12:38:13.890Z,17.40
2018-10-16T12:39:13.985Z,16.40
2018-10-16T12:40:13.943Z,15.10
2018-10-16T12:41:14.649Z,16.00
2018-10-16T12:42:14.047Z,15.30
2018-10-16T12:43:14.041Z,14.20
2018-10-16T12:44:13.931Z,14.70
2018-10-16T12:45:13.996Z,14.70
2018-10-16T12:46:14.112Z,13.90
2018-10-16T12:47:14.157Z,13.60
2018-10-16T12:48:14.071Z,13.80
2018-10-16T12:49:13.938Z,14.20
2018-10-16T12:50:14.011Z,14.50
2018-10-16T12:51:14.098Z,12.60
2018-10-16T12:52:13.983Z,13.10
2018-10-16T12:53:15.118Z,13.40
2018-10-16T12:54:14.059Z,12.70
2018-10-16T12:55:13.966Z,12.10